Pike Bay, Minnesota
Current Conditions -  °F | °C
As of 8:55 AM on Monday 22 Dec 2014 (Local Time) from KY49 Reporting Station
Haze Haze  
Wind Chill: 34°   Ceiling: 400
Heat Index: 34°   Visibility: 4mi
Dew Point: 34°   Wind: 3mph
Humidity: 99%   Direction: 130°SE
Pressure: 29.57"   Gusts: NA
Location:  47.3012°N, 94.5426°W
Report Text: KY49 221455Z AUTO 13003KT 4SM BR OVC004 01/01 A2957 RMK AO2 T00100009
Loading
Personal Weather Stations






























Interactive Weather Map New forecast layout! Learn more

10-Day Weather Forecast

Advertisements
Track Severe Weather on mobile